sensor_id;sensor_type;location;lat;lon;timestamp;pressure;altitude;pressure_sealevel;temperature;humidity
72285;BME280;60220;53.552;10.092;2023-10-19T00:02:08;100057.47;;;8.94;100.00
72285;BME280;60220;53.552;10.092;2023-10-19T00:04:37;100056.41;;;8.53;100.00
72285;BME280;60220;53.552;10.092;2023-10-19T00:07:05;100037.72;;;8.76;100.00
72285;BME280;60220;53.552;10.092;2023-10-19T00:09:41;100033.16;;;8.87;100.00
72285;BME280;60220;53.552;10.092;2023-10-19T00:12:10;100031.47;;;8.85;100.00
72285;BME280;60220;53.552;10.092;2023-10-19T00:14:38;100028.97;;;8.77;100.00
72285;BME280;60220;53.552;10.092;2023-10-19T00:17:04;100016.09;;;8.67;100.00
72285;BME280;60220;53.552;10.092;2023-10-19T00:19:37;100028.00;;;8.83;100.00
72285;BME280;60220;53.552;10.092;2023-10-19T00:22:09;100014.78;;;8.90;100.00
72285;BME280;60220;53.552;10.092;2023-10-19T00:24:41;100022.66;;;8.89;100.00
72285;BME280;60220;53.552;10.092;2023-10-19T00:27:07;100015.41;;;8.54;100.00
72285;BME280;60220;53.552;10.092;2023-10-19T00:29:41;100013.47;;;8.67;100.00
72285;BME280;60220;53.552;10.092;2023-10-19T00:32:15;100007.72;;;8.95;100.00
72285;BME280;60220;53.552;10.092;2023-10-19T00:34:45;100006.53;;;8.64;100.00
72285;BME280;60220;53.552;10.092;2023-10-19T00:37:18;100002.31;;;9.04;100.00
72285;BME280;60220;53.552;10.092;2023-10-19T00:39:54;100004.59;;;8.75;100.00
72285;BME280;60220;53.552;10.092;2023-10-19T00:42:22;99994.84;;;8.85;100.00
72285;BME280;60220;53.552;10.092;2023-10-19T00:44:55;99995.81;;;9.25;100.00
72285;BME280;60220;53.552;10.092;2023-10-19T00:47:28;99983.69;;;8.72;100.00
72285;BME280;60220;53.552;10.092;2023-10-19T00:50:05;99977.72;;;9.12;100.00
72285;BME280;60220;53.552;10.092;2023-10-19T00:52:38;99979.31;;;8.74;100.00
72285;BME280;60220;53.552;10.092;2023-10-19T00:55:09;99979.22;;;8.79;100.00
72285;BME280;60220;53.552;10.092;2023-10-19T00:57:39;99984.97;;;8.51;100.00
72285;BME280;60220;53.552;10.092;2023-10-19T01:00:08;99976.81;;;9.16;100.00
72285;BME280;60220;53.552;10.092;2023-10-19T01:02:40;99984.16;;;8.95;100.00
72285;BME280;60220;53.552;10.092;2023-10-19T01:05:14;99983.22;;;8.99;100.00
72285;BME280;60220;53.552;10.092;2023-10-19T01:07:47;99971.28;;;8.83;100.00
72285;BME280;60220;53.552;10.092;2023-10-19T01:10:21;99971.59;;;9.13;100.00
72285;BME280;60220;53.552;10.092;2023-10-19T01:12:49;99955.59;;;8.83;100.00
72285;BME280;60220;53.552;10.092;2023-10-19T01:15:19;99946.94;;;8.81;100.00
72285;BME280;60220;53.552;10.092;2023-10-19T01:17:52;99949.41;;;8.87;100.00
72285;BME280;60220;53.552;10.092;2023-10-19T01:20:22;99943.06;;;9.00;100.00
72285;BME280;60220;53.552;10.092;2023-10-19T01:23:02;99930.72;;;8.61;100.00
72285;BME280;60220;53.552;10.092;2023-10-19T01:25:47;99929.22;;;8.95;100.00
72285;BME280;60220;53.552;10.092;2023-10-19T01:28:26;99924.97;;;8.41;100.00
72285;BME280;60220;53.552;10.092;2023-10-19T01:30:54;99919.22;;;8.71;100.00
72285;BME280;60220;53.552;10.092;2023-10-19T01:33:21;99920.34;;;8.56;100.00
72285;BME280;60220;53.552;10.092;2023-10-19T01:35:48;99921.97;;;8.62;100.00
72285;BME280;60220;53.552;10.092;2023-10-19T01:38:34;99917.06;;;8.91;100.00
72285;BME280;60220;53.552;10.092;2023-10-19T01:41:02;99910.81;;;8.98;100.00
72285;BME280;60220;53.552;10.092;2023-10-19T01:43:31;99905.63;;;9.37;100.00
72285;BME280;60220;53.552;10.092;2023-10-19T01:45:58;99897.75;;;8.97;100.00
72285;BME280;60220;53.552;10.092;2023-10-19T01:48:29;99899.00;;;8.78;100.00
72285;BME280;60220;53.552;10.092;2023-10-19T01:50:59;99896.50;;;9.16;100.00
72285;BME280;60220;53.552;10.092;2023-10-19T01:53:25;99899.06;;;9.18;100.00
72285;BME280;60220;53.552;10.092;2023-10-19T01:55:53;99889.16;;;8.90;100.00
72285;BME280;60220;53.552;10.092;2023-10-19T01:58:23;99874.03;;;9.04;100.00
72285;BME280;60220;53.552;10.092;2023-10-19T02:00:53;99877.34;;;9.14;100.00
72285;BME280;60220;53.552;10.092;2023-10-19T02:03:21;99871.38;;;8.63;100.00
72285;BME280;60220;53.552;10.092;2023-10-19T02:05:57;99864.84;;;8.41;100.00
72285;BME280;60220;53.552;10.092;2023-10-19T02:08:24;99864.94;;;8.35;100.00
72285;BME280;60220;53.552;10.092;2023-10-19T02:10:55;99868.63;;;8.71;100.00
72285;BME280;60220;53.552;10.092;2023-10-19T02:13:23;99867.72;;;9.15;100.00
72285;BME280;60220;53.552;10.092;2023-10-19T02:15:52;99866.56;;;9.28;100.00
72285;BME280;60220;53.552;10.092;2023-10-19T02:18:19;99861.44;;;9.22;100.00
72285;BME280;60220;53.552;10.092;2023-10-19T02:20:46;99855.59;;;9.11;100.00
72285;BME280;60220;53.552;10.092;2023-10-19T02:23:13;99851.78;;;8.84;100.00
72285;BME280;60220;53.552;10.092;2023-10-19T02:25:41;99858.88;;;8.79;100.00
72285;BME280;60220;53.552;10.092;2023-10-19T02:28:11;99851.94;;;8.76;100.00
72285;BME280;60220;53.552;10.092;2023-10-19T02:30:38;99832.56;;;8.86;100.00
72285;BME280;60220;53.552;10.092;2023-10-19T02:33:08;99830.81;;;8.85;100.00
72285;BME280;60220;53.552;10.092;2023-10-19T02:35:36;99831.94;;;9.15;100.00
72285;BME280;60220;53.552;10.092;2023-10-19T02:38:03;99839.00;;;9.50;100.00
72285;BME280;60220;53.552;10.092;2023-10-19T02:40:29;99838.03;;;9.16;100.00
72285;BME280;60220;53.552;10.092;2023-10-19T02:42:59;99842.63;;;9.04;100.00
72285;BME280;60220;53.552;10.092;2023-10-19T02:45:29;99842.81;;;8.95;100.00
72285;BME280;60220;53.552;10.092;2023-10-19T02:47:58;99850.41;;;9.07;100.00
72285;BME280;60220;53.552;10.092;2023-10-19T02:50:24;99844.78;;;8.86;100.00
72285;BME280;60220;53.552;10.092;2023-10-19T02:52:51;99847.50;;;8.81;100.00
72285;BME280;60220;53.552;10.092;2023-10-19T02:55:17;99854.31;;;8.88;100.00
72285;BME280;60220;53.552;10.092;2023-10-19T02:57:45;99846.66;;;9.21;100.00
72285;BME280;60220;53.552;10.092;2023-10-19T03:00:13;99835.09;;;8.89;100.00
72285;BME280;60220;53.552;10.092;2023-10-19T03:02:41;99841.06;;;8.96;100.00
72285;BME280;60220;53.552;10.092;2023-10-19T03:05:07;99827.34;;;9.25;100.00
72285;BME280;60220;53.552;10.092;2023-10-19T03:07:39;99830.50;;;9.40;100.00
72285;BME280;60220;53.552;10.092;2023-10-19T03:10:08;99827.66;;;9.49;100.00
72285;BME280;60220;53.552;10.092;2023-10-19T03:12:50;99821.22;;;9.26;100.00
72285;BME280;60220;53.552;10.092;2023-10-19T03:15:18;99827.69;;;9.10;100.00
72285;BME280;60220;53.552;10.092;2023-10-19T03:17:47;99816.75;;;8.91;100.00
72285;BME280;60220;53.552;10.092;2023-10-19T03:20:14;99814.09;;;8.92;100.00
72285;BME280;60220;53.552;10.092;2023-10-19T03:22:44;99820.59;;;9.15;100.00
72285;BME280;60220;53.552;10.092;2023-10-19T03:25:13;99813.72;;;9.11;100.00
72285;BME280;60220;53.552;10.092;2023-10-19T03:27:56;99811.28;;;9.40;100.00
72285;BME280;60220;53.552;10.092;2023-10-19T03:30:23;99799.38;;;8.87;100.00
72285;BME280;60220;53.552;10.092;2023-10-19T03:32:54;99814.25;;;8.86;100.00
72285;BME280;60220;53.552;10.092;2023-10-19T03:35:21;99804.31;;;8.59;100.00
72285;BME280;60220;53.552;10.092;2023-10-19T03:37:49;99814.41;;;8.77;100.00
72285;BME280;60220;53.552;10.092;2023-10-19T03:40:17;99810.09;;;8.75;100.00
72285;BME280;60220;53.552;10.092;2023-10-19T03:42:52;99818.38;;;8.06;100.00
72285;BME280;60220;53.552;10.092;2023-10-19T03:45:20;99810.91;;;8.35;100.00
72285;BME280;60220;53.552;10.092;2023-10-19T03:47:50;99816.56;;;8.57;100.00
72285;BME280;60220;53.552;10.092;2023-10-19T03:50:20;99816.00;;;8.84;100.00
72285;BME280;60220;53.552;10.092;2023-10-19T03:52:47;99803.63;;;8.51;100.00
72285;BME280;60220;53.552;10.092;2023-10-19T03:55:16;99810.91;;;8.35;100.00
72285;BME280;60220;53.552;10.092;2023-10-19T03:57:44;99803.41;;;8.15;100.00
72285;BME280;60220;53.552;10.092;2023-10-19T04:00:18;99807.41;;;8.35;100.00
72285;BME280;60220;53.552;10.092;2023-10-19T04:02:47;99804.41;;;8.56;100.00
72285;BME280;60220;53.552;10.092;2023-10-19T04:05:15;99801.19;;;8.42;100.00
72285;BME280;60220;53.552;10.092;2023-10-19T04:07:49;99794.03;;;8.02;100.00
72285;BME280;60220;53.552;10.092;2023-10-19T04:10:20;99793.81;;;7.67;100.00
72285;BME280;60220;53.552;10.092;2023-10-19T04:12:56;99788.19;;;7.88;100.00
72285;BME280;60220;53.552;10.092;2023-10-19T04:15:25;99774.94;;;7.99;100.00
72285;BME280;60220;53.552;10.092;2023-10-19T04:17:54;99781.44;;;7.76;100.00
72285;BME280;60220;53.552;10.092;2023-10-19T04:20:24;99776.94;;;7.83;100.00
72285;BME280;60220;53.552;10.092;2023-10-19T04:22:56;99780.41;;;7.85;100.00
72285;BME280;60220;53.552;10.092;2023-10-19T04:25:31;99777.03;;;7.80;100.00
72285;BME280;60220;53.552;10.092;2023-10-19T04:27:59;99779.16;;;7.57;100.00
72285;BME280;60220;53.552;10.092;2023-10-19T04:30:26;99779.69;;;7.77;100.00
72285;BME280;60220;53.552;10.092;2023-10-19T04:32:53;99775.63;;;7.59;100.00
72285;BME280;60220;53.552;10.092;2023-10-19T04:35:21;99781.00;;;7.52;100.00
72285;BME280;60220;53.552;10.092;2023-10-19T04:37:48;99780.31;;;7.38;100.00
72285;BME280;60220;53.552;10.092;2023-10-19T04:40:24;99787.66;;;7.69;100.00
72285;BME280;60220;53.552;10.092;2023-10-19T04:42:52;99777.56;;;7.97;100.00
72285;BME280;60220;53.552;10.092;2023-10-19T04:45:19;99781.28;;;7.84;100.00
72285;BME280;60220;53.552;10.092;2023-10-19T04:47:50;99777.97;;;7.76;100.00
72285;BME280;60220;53.552;10.092;2023-10-19T04:50:18;99784.69;;;7.89;100.00
72285;BME280;60220;53.552;10.092;2023-10-19T04:52:44;99778.00;;;7.73;100.00
72285;BME280;60220;53.552;10.092;2023-10-19T04:55:11;99778.16;;;7.64;100.00
72285;BME280;60220;53.552;10.092;2023-10-19T04:57:39;99785.75;;;7.79;100.00
72285;BME280;60220;53.552;10.092;2023-10-19T05:00:07;99769.53;;;7.59;100.00
72285;BME280;60220;53.552;10.092;2023-10-19T05:02:38;99770.63;;;7.46;100.00
72285;BME280;60220;53.552;10.092;2023-10-19T05:05:05;99764.59;;;7.93;100.00
72285;BME280;60220;53.552;10.092;2023-10-19T05:07:32;99764.47;;;7.50;100.00
72285;BME280;60220;53.552;10.092;2023-10-19T05:10:01;99760.09;;;7.52;100.00
72285;BME280;60220;53.552;10.092;2023-10-19T05:12:30;99754.50;;;7.21;100.00
72285;BME280;60220;53.552;10.092;2023-10-19T05:14:58;99744.72;;;7.33;100.00
72285;BME280;60220;53.552;10.092;2023-10-19T05:17:28;99740.63;;;7.69;100.00
72285;BME280;60220;53.552;10.092;2023-10-19T05:19:54;99745.16;;;7.60;100.00
72285;BME280;60220;53.552;10.092;2023-10-19T05:22:24;99740.63;;;7.69;100.00
72285;BME280;60220;53.552;10.092;2023-10-19T05:24:54;99736.72;;;7.43;100.00
72285;BME280;60220;53.552;10.092;2023-10-19T05:27:21;99744.28;;;7.59;100.00
72285;BME280;60220;53.552;10.092;2023-10-19T05:29:51;99736.22;;;7.73;100.00
72285;BME280;60220;53.552;10.092;2023-10-19T05:32:19;99733.75;;;7.64;100.00
72285;BME280;60220;53.552;10.092;2023-10-19T05:34:46;99736.88;;;7.84;100.00
72285;BME280;60220;53.552;10.092;2023-10-19T05:37:13;99727.97;;;7.96;100.00
72285;BME280;60220;53.552;10.092;2023-10-19T05:39:41;99718.06;;;7.65;100.00
72285;BME280;60220;53.552;10.092;2023-10-19T05:42:08;99717.97;;;7.71;100.00
72285;BME280;60220;53.552;10.092;2023-10-19T05:44:34;99722.84;;;7.41;100.00
72285;BME280;60220;53.552;10.092;2023-10-19T05:47:01;99729.47;;;7.60;100.00
72285;BME280;60220;53.552;10.092;2023-10-19T05:49:29;99717.31;;;7.57;100.00
72285;BME280;60220;53.552;10.092;2023-10-19T05:51:56;99716.66;;;7.95;100.00
72285;BME280;60220;53.552;10.092;2023-10-19T05:54:25;99714.41;;;7.23;100.00
72285;BME280;60220;53.552;10.092;2023-10-19T05:56:52;99712.97;;;7.58;100.00
72285;BME280;60220;53.552;10.092;2023-10-19T05:59:19;99712.56;;;7.31;100.00
72285;BME280;60220;53.552;10.092;2023-10-19T06:01:45;99720.59;;;7.70;100.00
72285;BME280;60220;53.552;10.092;2023-10-19T06:04:13;99718.09;;;7.62;100.00
72285;BME280;60220;53.552;10.092;2023-10-19T06:06:41;99727.28;;;7.35;100.00
72285;BME280;60220;53.552;10.092;2023-10-19T06:09:08;99720.88;;;7.55;100.00
72285;BME280;60220;53.552;10.092;2023-10-19T06:11:35;99718.84;;;7.18;100.00
72285;BME280;60220;53.552;10.092;2023-10-19T06:14:03;99715.13;;;7.34;100.00
72285;BME280;60220;53.552;10.092;2023-10-19T06:16:32;99715.47;;;7.64;100.00
72285;BME280;60220;53.552;10.092;2023-10-19T06:18:59;99705.78;;;7.70;100.00
72285;BME280;60220;53.552;10.092;2023-10-19T06:21:26;99706.44;;;7.32;100.00
72285;BME280;60220;53.552;10.092;2023-10-19T06:23:54;99704.75;;;7.79;100.00
72285;BME280;60220;53.552;10.092;2023-10-19T06:26:21;99704.16;;;7.65;100.00
72285;BME280;60220;53.552;10.092;2023-10-19T06:28:48;99705.00;;;7.67;100.00
72285;BME280;60220;53.552;10.092;2023-10-19T06:31:16;99713.19;;;7.46;100.00
72285;BME280;60220;53.552;10.092;2023-10-19T06:33:44;99717.47;;;7.50;100.00
72285;BME280;60220;53.552;10.092;2023-10-19T06:36:11;99713.66;;;7.69;100.00
72285;BME280;60220;53.552;10.092;2023-10-19T06:38:38;99716.69;;;7.45;100.00
72285;BME280;60220;53.552;10.092;2023-10-19T06:41:12;99718.59;;;7.84;100.00
72285;BME280;60220;53.552;10.092;2023-10-19T06:43:39;99716.09;;;7.27;100.00
72285;BME280;60220;53.552;10.092;2023-10-19T06:46:06;99721.81;;;7.51;100.00
72285;BME280;60220;53.552;10.092;2023-10-19T06:48:32;99726.03;;;8.05;100.00
72285;BME280;60220;53.552;10.092;2023-10-19T06:51:01;99726.19;;;7.49;100.00
72285;BME280;60220;53.552;10.092;2023-10-19T06:53:27;99723.59;;;7.47;100.00
72285;BME280;60220;53.552;10.092;2023-10-19T06:55:54;99722.78;;;7.44;100.00
72285;BME280;60220;53.552;10.092;2023-10-19T06:58:22;99729.66;;;7.51;100.00
72285;BME280;60220;53.552;10.092;2023-10-19T07:00:52;99730.50;;;7.51;100.00
72285;BME280;60220;53.552;10.092;2023-10-19T07:03:25;99735.47;;;7.66;100.00
72285;BME280;60220;53.552;10.092;2023-10-19T07:05:54;99728.94;;;7.90;100.00
72285;BME280;60220;53.552;10.092;2023-10-19T07:08:22;99725.56;;;7.85;100.00
72285;BME280;60220;53.552;10.092;2023-10-19T07:10:48;99717.41;;;7.53;100.00
72285;BME280;60220;53.552;10.092;2023-10-19T07:13:16;99717.56;;;7.44;100.00
72285;BME280;60220;53.552;10.092;2023-10-19T07:15:47;99713.84;;;7.58;100.00
72285;BME280;60220;53.552;10.092;2023-10-19T07:18:14;99718.66;;;7.81;100.00
72285;BME280;60220;53.552;10.092;2023-10-19T07:20:43;99717.44;;;8.00;100.00
72285;BME280;60220;53.552;10.092;2023-10-19T07:23:16;99714.13;;;7.91;100.00
72285;BME280;60220;53.552;10.092;2023-10-19T07:25:47;99702.63;;;8.44;100.00
72285;BME280;60220;53.552;10.092;2023-10-19T07:28:19;99700.91;;;7.98;100.00
72285;BME280;60220;53.552;10.092;2023-10-19T07:30:48;99708.06;;;7.87;100.00
72285;BME280;60220;53.552;10.092;2023-10-19T07:33:16;99720.66;;;7.67;100.00
72285;BME280;60220;53.552;10.092;2023-10-19T07:35:44;99730.34;;;7.60;100.00
72285;BME280;60220;53.552;10.092;2023-10-19T07:38:14;99740.63;;;7.69;100.00
72285;BME280;60220;53.552;10.092;2023-10-19T07:40:42;99741.25;;;7.82;100.00
72285;BME280;60220;53.552;10.092;2023-10-19T07:43:11;99738.38;;;7.97;100.00
72285;BME280;60220;53.552;10.092;2023-10-19T07:45:38;99738.81;;;7.73;100.00
72285;BME280;60220;53.552;10.092;2023-10-19T07:48:07;99724.53;;;7.92;100.00
72285;BME280;60220;53.552;10.092;2023-10-19T07:50:37;99731.31;;;8.02;100.00
72285;BME280;60220;53.552;10.092;2023-10-19T07:53:08;99726.06;;;8.02;100.00
72285;BME280;60220;53.552;10.092;2023-10-19T07:55:36;99721.13;;;7.87;100.00
72285;BME280;60220;53.552;10.092;2023-10-19T07:58:04;99712.06;;;7.60;100.00
72285;BME280;60220;53.552;10.092;2023-10-19T08:00:32;99714.66;;;7.62;100.00
72285;BME280;60220;53.552;10.092;2023-10-19T08:02:59;99693.13;;;7.48;100.00
72285;BME280;60220;53.552;10.092;2023-10-19T08:05:30;99692.97;;;8.03;100.00
72285;BME280;60220;53.552;10.092;2023-10-19T08:07:56;99699.50;;;7.81;100.00
72285;BME280;60220;53.552;10.092;2023-10-19T08:10:24;99701.59;;;7.62;100.00
72285;BME280;60220;53.552;10.092;2023-10-19T08:12:52;99699.03;;;8.06;100.00
72285;BME280;60220;53.552;10.092;2023-10-19T08:15:20;99694.41;;;8.17;100.00
72285;BME280;60220;53.552;10.092;2023-10-19T08:17:49;99692.78;;;8.12;100.00
72285;BME280;60220;53.552;10.092;2023-10-19T08:20:16;99698.47;;;8.35;100.00
72285;BME280;60220;53.552;10.092;2023-10-19T08:22:52;99685.81;;;8.12;100.00
72285;BME280;60220;53.552;10.092;2023-10-19T08:25:22;99681.53;;;8.08;100.00
72285;BME280;60220;53.552;10.092;2023-10-19T08:27:51;99681.72;;;7.99;100.00
72285;BME280;60220;53.552;10.092;2023-10-19T08:30:22;99680.06;;;7.95;100.00
72285;BME280;60220;53.552;10.092;2023-10-19T08:32:50;99665.72;;;8.16;100.00
72285;BME280;60220;53.552;10.092;2023-10-19T08:35:18;99661.31;;;8.18;100.00
72285;BME280;60220;53.552;10.092;2023-10-19T08:37:46;99655.31;;;7.70;100.00
72285;BME280;60220;53.552;10.092;2023-10-19T08:40:17;99674.97;;;7.89;100.00
72285;BME280;60220;53.552;10.092;2023-10-19T08:42:46;99676.19;;;7.70;100.00
72285;BME280;60220;53.552;10.092;2023-10-19T08:45:14;99678.09;;;7.62;100.00
72285;BME280;60220;53.552;10.092;2023-10-19T08:47:43;99673.00;;;7.54;100.00
72285;BME280;60220;53.552;10.092;2023-10-19T08:50:19;99675.81;;;7.91;100.00
72285;BME280;60220;53.552;10.092;2023-10-19T08:52:50;99671.50;;;7.87;100.00
72285;BME280;60220;53.552;10.092;2023-10-19T08:55:20;99676.44;;;8.02;100.00
72285;BME280;60220;53.552;10.092;2023-10-19T08:57:48;99664.09;;;8.10;100.00
72285;BME280;60220;53.552;10.092;2023-10-19T09:00:16;99669.53;;;7.98;100.00
72285;BME280;60220;53.552;10.092;2023-10-19T09:02:44;99678.03;;;7.65;100.00
72285;BME280;60220;53.552;10.092;2023-10-19T09:05:11;99691.69;;;7.81;100.00
72285;BME280;60220;53.552;10.092;2023-10-19T09:07:45;99682.81;;;7.88;100.00
72285;BME280;60220;53.552;10.092;2023-10-19T09:10:15;99700.72;;;8.07;100.00
72285;BME280;60220;53.552;10.092;2023-10-19T09:12:58;99693.72;;;8.52;100.00
72285;BME280;60220;53.552;10.092;2023-10-19T09:15:25;99694.22;;;8.28;100.00
72285;BME280;60220;53.552;10.092;2023-10-19T09:17:52;99699.06;;;8.48;100.00
72285;BME280;60220;53.552;10.092;2023-10-19T09:20:20;99694.97;;;8.35;100.00
72285;BME280;60220;53.552;10.092;2023-10-19T09:22:54;99690.78;;;8.26;100.00
72285;BME280;60220;53.552;10.092;2023-10-19T09:25:22;99695.34;;;8.15;100.00
72285;BME280;60220;53.552;10.092;2023-10-19T09:27:51;99684.25;;;8.04;100.00
72285;BME280;60220;53.552;10.092;2023-10-19T09:30:21;99681.59;;;8.07;100.00
72285;BME280;60220;53.552;10.092;2023-10-19T09:32:51;99681.84;;;7.93;100.00
72285;BME280;60220;53.552;10.092;2023-10-19T09:35:22;99685.44;;;7.88;100.00
72285;BME280;60220;53.552;10.092;2023-10-19T09:37:53;99674.72;;;7.55;100.00
72285;BME280;60220;53.552;10.092;2023-10-19T09:40:21;99691.44;;;7.47;100.00
72285;BME280;60220;53.552;10.092;2023-10-19T09:42:53;99692.03;;;7.61;100.00
72285;BME280;60220;53.552;10.092;2023-10-19T09:45:26;99695.09;;;7.37;100.00
72285;BME280;60220;53.552;10.092;2023-10-19T09:47:54;99691.50;;;7.90;100.00
72285;BME280;60220;53.552;10.092;2023-10-19T09:50:22;99680.56;;;7.68;100.00
72285;BME280;60220;53.552;10.092;2023-10-19T09:52:49;99668.19;;;7.79;100.00
72285;BME280;60220;53.552;10.092;2023-10-19T09:55:19;99677.16;;;7.66;100.00
72285;BME280;60220;53.552;10.092;2023-10-19T09:57:53;99688.31;;;7.72;100.00
72285;BME280;60220;53.552;10.092;2023-10-19T10:00:22;99703.03;;;7.78;100.00
72285;BME280;60220;53.552;10.092;2023-10-19T10:02:50;99695.19;;;8.22;100.00
72285;BME280;60220;53.552;10.092;2023-10-19T10:05:46;99701.88;;;8.39;100.00
72285;BME280;60220;53.552;10.092;2023-10-19T10:08:32;99712.47;;;7.87;100.00
72285;BME280;60220;53.552;10.092;2023-10-19T10:11:29;99702.16;;;7.79;100.00
72285;BME280;60220;53.552;10.092;2023-10-19T10:14:00;99701.78;;;7.99;100.00
72285;BME280;60220;53.552;10.092;2023-10-19T10:16:27;99697.94;;;7.72;100.00
72285;BME280;60220;53.552;10.092;2023-10-19T10:18:56;99709.63;;;7.97;100.00
72285;BME280;60220;53.552;10.092;2023-10-19T10:21:25;99708.84;;;7.92;100.00
72285;BME280;60220;53.552;10.092;2023-10-19T10:23:53;99703.28;;;7.64;100.00
72285;BME280;60220;53.552;10.092;2023-10-19T10:26:22;99695.75;;;7.95;100.00
72285;BME280;60220;53.552;10.092;2023-10-19T10:29:12;99695.06;;;8.29;100.00
72285;BME280;60220;53.552;10.092;2023-10-19T10:31:43;99699.88;;;7.61;100.00
72285;BME280;60220;53.552;10.092;2023-10-19T10:34:10;99696.41;;;7.59;100.00
72285;BME280;60220;53.552;10.092;2023-10-19T10:36:59;99693.09;;;7.49;100.00
72285;BME280;60220;53.552;10.092;2023-10-19T10:39:28;99691.34;;;7.51;100.00
72285;BME280;60220;53.552;10.092;2023-10-19T10:41:56;99683.19;;;8.12;100.00
72285;BME280;60220;53.552;10.092;2023-10-19T10:44:37;99677.97;;;8.12;100.00
72285;BME280;60220;53.552;10.092;2023-10-19T10:47:06;99670.53;;;7.93;100.00
72285;BME280;60220;53.552;10.092;2023-10-19T10:49:33;99668.88;;;7.87;100.00
72285;BME280;60220;53.552;10.092;2023-10-19T10:52:00;99667.78;;;8.00;100.00
72285;BME280;60220;53.552;10.092;2023-10-19T10:54:26;99670.41;;;7.53;100.00
72285;BME280;60220;53.552;10.092;2023-10-19T10:56:53;99676.69;;;7.90;100.00
72285;BME280;60220;53.552;10.092;2023-10-19T10:59:20;99675.34;;;7.68;100.00
72285;BME280;60220;53.552;10.092;2023-10-19T11:01:48;99678.88;;;7.67;100.00
72285;BME280;60220;53.552;10.092;2023-10-19T11:04:15;99658.09;;;8.05;100.00
72285;BME280;60220;53.552;10.092;2023-10-19T11:06:47;99664.63;;;7.83;100.00
72285;BME280;60220;53.552;10.092;2023-10-19T11:09:14;99656.69;;;7.88;100.00
72285;BME280;60220;53.552;10.092;2023-10-19T11:11:43;99665.56;;;7.79;100.00
72285;BME280;60220;53.552;10.092;2023-10-19T11:14:10;99653.34;;;7.33;100.00
72285;BME280;60220;53.552;10.092;2023-10-19T11:16:37;99661.94;;;7.42;100.00
72285;BME280;60220;53.552;10.092;2023-10-19T11:19:06;99682.09;;;7.81;100.00
72285;BME280;60220;53.552;10.092;2023-10-19T11:21:36;99682.53;;;7.57;100.00
72285;BME280;60220;53.552;10.092;2023-10-19T11:24:03;99692.75;;;7.69;100.00
72285;BME280;60220;53.552;10.092;2023-10-19T11:26:39;99687.53;;;7.69;100.00
72285;BME280;60220;53.552;10.092;2023-10-19T11:29:08;99689.19;;;7.73;100.00
72285;BME280;60220;53.552;10.092;2023-10-19T11:31:35;99683.16;;;8.15;100.00
72285;BME280;60220;53.552;10.092;2023-10-19T11:34:06;99683.69;;;7.88;100.00
72285;BME280;60220;53.552;10.092;2023-10-19T11:36:34;99680.44;;;7.75;100.00
72285;BME280;60220;53.552;10.092;2023-10-19T11:39:03;99678.22;;;8.00;100.00
72285;BME280;60220;53.552;10.092;2023-10-19T11:41:30;99674.72;;;8.01;100.00
72285;BME280;60220;53.552;10.092;2023-10-19T11:43:58;99676.78;;;7.84;100.00
72285;BME280;60220;53.552;10.092;2023-10-19T11:46:25;99663.34;;;7.58;100.00
72285;BME280;60220;53.552;10.092;2023-10-19T11:48:52;99657.22;;;7.60;100.00
72285;BME280;60220;53.552;10.092;2023-10-19T11:51:20;99653.81;;;8.01;100.00
72285;BME280;60220;53.552;10.092;2023-10-19T11:53:49;99643.31;;;8.04;100.00
72285;BME280;60220;53.552;10.092;2023-10-19T11:56:18;99637.31;;;7.99;100.00
72285;BME280;60220;53.552;10.092;2023-10-19T11:58:46;99633.25;;;7.83;100.00
72285;BME280;60220;53.552;10.092;2023-10-19T12:01:15;99626.19;;;7.88;100.00
72285;BME280;60220;53.552;10.092;2023-10-19T12:03:42;99624.44;;;7.90;100.00
72285;BME280;60220;53.552;10.092;2023-10-19T12:06:13;99616.00;;;7.76;100.00
72285;BME280;60220;53.552;10.092;2023-10-19T12:08:45;99615.56;;;7.97;100.00
72285;BME280;60220;53.552;10.092;2023-10-19T12:11:12;99615.25;;;8.12;100.00
72285;BME280;60220;53.552;10.092;2023-10-19T12:13:42;99630.25;;;8.03;100.00
72285;BME280;60220;53.552;10.092;2023-10-19T12:16:10;99607.78;;;7.94;100.00
72285;BME280;60220;53.552;10.092;2023-10-19T12:18:38;99596.59;;;7.88;100.00
72285;BME280;60220;53.552;10.092;2023-10-19T12:21:07;99597.41;;;7.91;100.00
72285;BME280;60220;53.552;10.092;2023-10-19T12:23:38;99609.47;;;8.40;100.00
72285;BME280;60220;53.552;10.092;2023-10-19T12:26:07;99608.03;;;8.23;100.00
72285;BME280;60220;53.552;10.092;2023-10-19T12:28:36;99596.13;;;8.10;100.00
72285;BME280;60220;53.552;10.092;2023-10-19T12:31:04;99587.31;;;8.14;100.00
72285;BME280;60220;53.552;10.092;2023-10-19T12:33:34;99598.66;;;8.13;100.00
72285;BME280;60220;53.552;10.092;2023-10-19T12:36:01;99611.59;;;8.61;100.00
72285;BME280;60220;53.552;10.092;2023-10-19T12:38:43;99599.38;;;8.21;100.00
72285;BME280;60220;53.552;10.092;2023-10-19T12:41:12;99593.72;;;8.01;100.00
72285;BME280;60220;53.552;10.092;2023-10-19T12:43:42;99592.75;;;8.05;100.00
72285;BME280;60220;53.552;10.092;2023-10-19T12:46:09;99589.25;;;8.06;100.00
72285;BME280;60220;53.552;10.092;2023-10-19T12:48:37;99595.41;;;8.44;100.00
72285;BME280;60220;53.552;10.092;2023-10-19T12:51:04;99587.78;;;8.35;100.00
72285;BME280;60220;53.552;10.092;2023-10-19T12:53:32;99585.50;;;8.18;100.00
72285;BME280;60220;53.552;10.092;2023-10-19T12:56:00;99580.81;;;8.35;100.00
72285;BME280;60220;53.552;10.092;2023-10-19T12:58:29;99567.97;;;8.23;100.00
72285;BME280;60220;53.552;10.092;2023-10-19T13:00:57;99568.72;;;8.30;100.00
72285;BME280;60220;53.552;10.092;2023-10-19T13:03:24;99570.16;;;8.03;100.00